Flight Track Log - Related Links

Times and Time Zones

All times are in EDT time to prevent confusion due to time zone crossing. See the GLA154 flight status page for this flight to view local times or setup timezone preferences in your user account.

Time Position Orientation Groundspeed Altitude Reporting Facility
EDT Latitude Longitude Course Direction KTS MPH feet Rate Location/Type
Sun 12:48:47 PM 35.2086 -113.9922 223° Southwest 202 232 6,200  Level Los Angeles Center
Sun 12:49:49 PM 35.1711 -114.0325 221° Southwest 178 205 8,200 1,887 Climbing Los Angeles Center
Sun 12:50:51 PM 35.1325 -114.0744 222° Southwest 184 212 10,100 1,839 Climbing Los Angeles Center
Sun 12:51:53 PM 35.0981 -114.1175 226° Southwest 180 207 12,000 1,887 Climbing Los Angeles Center
Sun 12:52:55 PM 35.0478 -114.1664 219° Southwest 190 219 14,000 1,742 Climbing Los Angeles Center
Sun 12:53:57 PM 35.0033 -114.2089 218° Southwest 200 230 15,600 1,488 Climbing Los Angeles Center
Sun 12:54:00 PM 34.9542 -114.2524 223° Southwest  Level FlightAware Approximate
Sun 12:55:00 PM 34.9631 -114.2547 223° Southwest 199 229 17,100  Level Los Angeles Center
Sun 12:56:02 PM 34.9242 -114.3033 226° Southwest 200 230 18,300 1,161 Climbing Los Angeles Center
Sun 12:57:04 PM 34.8853 -114.3553 228° Southwest 207 238 19,500 919 Climbing Los Angeles Center
Sun 12:58:06 PM 34.8442 -114.4097 227° Southwest 218 251 20,200 242 Climbing Los Angeles Center
Sun 12:59:08 PM 34.7717 -114.4656 212° Southwest 260 299 20,000 -48 Descending Los Angeles Center
Sun 01:00:10 PM 34.7119 -114.5206 217° Southwest 266 306 20,100 48 Climbing Los Angeles Center
Sun 01:01:12 PM 34.6678 -114.5919 233° Southwest 264 304 20,100  Level Los Angeles Center
Sun 01:02:14 PM 34.6172 -114.6558 226° Southwest 263 303 20,100 -48 Level Los Angeles Center
Sun 01:03:16 PM 34.5697 -114.7250 230° Southwest 264 304 20,000  Descending Los Angeles Center
Sun 01:04:18 PM 34.5289 -114.7986 236° Southwest 263 303 20,100  Climbing Los Angeles Center
Sun 01:05:20 PM 34.4836 -114.8883 239° Southwest 261 300 20,000  Descending Los Angeles Center
Sun 01:06:22 PM 34.4514 -114.9678 244° Southwest 261 300 20,100 48 Climbing Los Angeles Center
Sun 01:07:25 PM 34.4236 -115.0478 247° West 259 298 20,100  Level Los Angeles Center
Sun 01:08:27 PM 34.3939 -115.1269 246° West 259 298 20,100  Level Los Angeles Center
Sun 01:09:29 PM 34.3608 -115.2089 244° Southwest 257 296 20,100  Level Los Angeles Center
Sun 01:10:31 PM 34.3264 -115.2842 241° Southwest 256 295 20,100 -48 Level Los Angeles Center
Sun 01:11:33 PM 34.2914 -115.3606 241° Southwest 261 300 20,000 -48 Descending Los Angeles Center
Sun 01:12:35 PM 34.2550 -115.4350 239° Southwest 259 298 20,000  Level Los Angeles Center
Sun 01:13:37 PM 34.2139 -115.5267 242° Southwest 259 298 20,000  Level Los Angeles Center
Sun 01:14:39 PM 34.1794 -115.6031 241° Southwest 259 298 20,000  Level Los Angeles Center
Sun 01:15:41 PM 34.1486 -115.6811 245° Southwest 258 297 20,000 48 Level Los Angeles Center
Sun 01:16:43 PM 34.1175 -115.7600 245° Southwest 260 299 20,100 48 Climbing Los Angeles Center
Sun 01:17:45 PM 34.0875 -115.8383 245° Southwest 261 300 20,100  Level Los Angeles Center
Sun 01:18:47 PM 34.0542 -115.9336 247° West 258 297 20,100  Level Los Angeles Center
Sun 01:19:50 PM 34.0239 -116.0122 245° Southwest 260 299 20,100 -48 Level Los Angeles Center
Sun 01:20:52 PM 33.9936 -116.0903 245° Southwest 259 298 20,000 -581 Descending Los Angeles Center
Sun 01:21:54 PM 33.9675 -116.1725 249° West 263 303 18,900 -1,194 Descending Los Angeles Center
Sun 01:23:00 PM 33.9332 -116.2518 242° Southwest  Level FlightAware Approximate
Sun 01:23:58 PM 33.9150 -116.3419 242° Southwest 272 313 16,300  Level Los Angeles Center
Sun 01:25:00 PM 33.8783 -116.4394 246° West 268 308 16,000 -484 Descending Los Angeles Center
Sun 01:26:02 PM 33.8753 -116.5233 268° West 255 293 15,300 -726 Descending Los Angeles Center
Sun 01:27:04 PM 33.8822 -116.6142 275° West 271 312 14,500 -532 Descending Los Angeles Center
Sun 01:28:06 PM 33.8842 -116.7022 272° West 267 307 14,200 -242 Descending Los Angeles Center
Sun 01:29:08 PM 33.8911 -116.7886 276° West 262 302 14,000 -97 Descending Los Angeles Center
Sun 01:30:10 PM 33.8958 -116.8900 273° West 256 295 14,000 59 Level Los Angeles Center
Sun 01:30:49 PM 33.9000 -116.9500 275° West 252 290 14,100 -303 Climbing Southern California TRACON
Sun 01:31:49 PM 33.9000 -117.0333 270° West 263 303 13,500 -952 Descending Southern California TRACON
Sun 01:32:55 PM 33.9000 -117.1333 270° West 284 327 12,100 -1,476 Descending Southern California TRACON
Sun 01:33:55 PM 33.9000 -117.2333 270° West 281 323 10,400 -1,850 Descending Southern California TRACON
Sun 01:34:55 PM 33.9000 -117.3167 270° West 279 321 8,400 -1,200 Descending Southern California TRACON
Sun 01:35:55 PM 33.9167 -117.4167 281° West 270 311 8,000 -200 Descending Southern California TRACON
Sun 01:36:55 PM 33.9167 -117.5000 270° West 265 305 8,000 50 Level Southern California TRACON
Sun 01:37:55 PM 33.9167 -117.5833 270° West 267 307 8,100 50 Climbing Southern California TRACON
Sun 01:38:55 PM 33.9167 -117.6667 270° West 268 308 8,100  Level Southern California TRACON
Sun 01:39:55 PM 33.9167 -117.7667 270° West 267 307 8,100 -298 Level Southern California TRACON
Sun 01:40:56 PM 33.9167 -117.8500 270° West 268 308 7,500 -793 Descending Southern California TRACON
Sun 01:41:56 PM 33.9333 -117.9333 284° West 270 311 6,500 -991 Descending Southern California TRACON
Sun 01:42:51 PM 33.9667 -118.0000 301° West 261 300 5,600 -750 Descending Southern California TRACON
Sun 01:43:56 PM 33.9667 -118.1000 270° West 240 276 5,000 -611 Descending Southern California TRACON
Sun 01:44:39 PM 33.9628 -118.1375 263° West 225 259 4,500 -914 Descending Los Angeles Center
Sun 01:45:41 PM 33.9564 -118.2017 263° West 201 231 3,400 -1,200 Descending Los Angeles Center
Sun 01:46:44 PM 33.9486 -118.2775 263° West 195 224 2,000 -1,152 Descending Los Angeles Center
Sun 01:47:46 PM 33.9439 -118.3322 264° West 175 201 1,000 -823 Descending Los Angeles Center
Sun 01:48:48 PM 33.9394 -118.3742 263° West 144 166 300 -387 Descending Los Angeles Center
Sun 01:49:50 PM 33.9353 -118.4139 263° West 140 161 200 -97 Descending Los Angeles Center
Sun 01:51:00 PM 33.9425 -118.4081 100° East  Level Estimated

Login

Don't have an account? Register now (free) for customized features, flight alerts, and more!